KCGI

Cape Girardeau Regional Airport

Cape Girardeau, Missouri, USA
METAR KCGI 191353Z 00000KT 10SM CLR 09/05 A3027 RMK AO2 SLP251 T00890050
Observed Flight Rules
Oct-19 @ 13:53 UTC (14 minutes ago) Visual Flight Rules
Visibility Clouds
10 miles
  • Clear skies
Temperatures Readings
Current 9°C / 48°F
Dewpoint 5°C / 41°F
Humidity 76%
Altimeter 30.27" Hg
Pressure 1025.1 hPa
Elevation 102
METAR KCGI 191353Z 00000KT 10SM CLR 09/05 A3027 RMK AO2 SLP251 T00890050
Observed Flight Rules
Oct-19 @ 13:53 UTC
(14 minutes ago)
VFR
Clouds
  • Clear skies
Temperature Dewpoint
9°C / 48°F 5°C / 41°F
Humidity Altimeter Pressure
76% 30.27" Hg 1025.1 hPa